Airfield :
LOGIN :

Register | Disclaimer

   EN    FR    IT 

 










Legend :    VFR   Marginal VFR   IFR   Intensive IFR   Very Intensive IFR
Visi :
Ceiling :
>= 8 km
>= 3000ft
5 to 8 km
1000 to 3000 ft
1500m to 5 km
500 to 1000 ft
800 to 1500m
200 to 500 ft
< 800m
< 200 ft
Symbols :   Thunderstorms  Fog  Heavy snow  Heavy precipitations  Wind > 20 kt
SIGMETs :     Misc.  Thunderstorms  Icing  Turbulence  Mountain Waves  Volcanic Ashes






- Airport Elevation : 778 ft
- IATA code : BRQ


LKTB - Brno-Turany

CURRENT METAR :
  • 041230Z 20004KT 9999 FEW045 27/16 Q1017 NOSIG

EXPIRED METARs :
  • 041200Z 23006KT 200V260 9999 VCSH FEW049 27/15 Q1017 NOSIG
  • 041130Z VRB02KT 9999 FEW049 27/15 Q1017 NOSIG
  • 041100Z VRB03KT CAVOK 27/14 Q1017 NOSIG
  • 041030Z 22004KT 180V280 CAVOK 26/16 Q1018 NOSIG
  • 041000Z 25004KT 190V280 CAVOK 26/15 Q1018 NOSIG
  • 040930Z 23006KT 150V270 CAVOK 26/15 Q1018 NOSIG

TAF TAF LKTB
Valid from the 04 at 12:00 until the 05 at 18:00 UTC


041100Z 0412/0518 20007KT CAVOK
TEMPO 0412/0512 28014KT 8000 SHRA SCT030TCU
PROB30
TEMPO 0415/0418 34020G40KT 4000 TSRA SCT025CB
PROB40
TEMPO 0512/0517 34014G28KT 4000 TSRA BKN017CB



MET'MAP, your aeronautical weather chart ! - Copyright ORBIFLY December 2007 - Disclaimer

ORBIFLY MET'MAP TEAM :

Programming & Development : Alexandra Zaïnal
Original concept : Baudouin d'Aumeries
Technical & hardware support : Manuel Goepfert
Assistance : Marc-Olivier Méhu




SOURCES & CREDITS :

   NOAA